sensor_id;sensor_type;location;lat;lon;timestamp;temperature;humidity
71039;SHT30;58692;43.212;27.908;2023-04-01T00:01:03;8.49;90.40
71039;SHT30;58692;43.212;27.908;2023-04-01T00:03:29;8.51;90.41
71039;SHT30;58692;43.212;27.908;2023-04-01T00:05:57;8.49;90.18
71039;SHT30;58692;43.212;27.908;2023-04-01T00:08:23;8.52;90.13
71039;SHT30;58692;43.212;27.908;2023-04-01T00:10:49;8.52;90.17
71039;SHT30;58692;43.212;27.908;2023-04-01T00:13:15;8.55;89.98
71039;SHT30;58692;43.212;27.908;2023-04-01T00:15:41;8.56;89.73
71039;SHT30;58692;43.212;27.908;2023-04-01T00:18:07;8.56;89.89
71039;SHT30;58692;43.212;27.908;2023-04-01T00:20:32;8.42;90.09
71039;SHT30;58692;43.212;27.908;2023-04-01T00:22:58;8.41;90.30
71039;SHT30;58692;43.212;27.908;2023-04-01T00:25:24;8.48;90.12
71039;SHT30;58692;43.212;27.908;2023-04-01T00:27:49;8.46;89.95
71039;SHT30;58692;43.212;27.908;2023-04-01T00:30:15;8.44;89.78
71039;SHT30;58692;43.212;27.908;2023-04-01T00:32:41;8.30;90.00
71039;SHT30;58692;43.212;27.908;2023-04-01T00:35:07;8.24;90.17
71039;SHT30;58692;43.212;27.908;2023-04-01T00:37:35;8.14;90.47
71039;SHT30;58692;43.212;27.908;2023-04-01T00:40:03;8.17;90.41
71039;SHT30;58692;43.212;27.908;2023-04-01T00:42:29;8.24;90.19
71039;SHT30;58692;43.212;27.908;2023-04-01T00:44:55;8.25;89.92
71039;SHT30;58692;43.212;27.908;2023-04-01T00:47:22;8.15;90.12
71039;SHT30;58692;43.212;27.908;2023-04-01T00:49:51;8.11;90.10
71039;SHT30;58692;43.212;27.908;2023-04-01T00:52:20;8.04;90.31
71039;SHT30;58692;43.212;27.908;2023-04-01T00:54:49;7.94;91.02
71039;SHT30;58692;43.212;27.908;2023-04-01T00:57:23;8.03;90.64
71039;SHT30;58692;43.212;27.908;2023-04-01T00:59:54;8.04;90.47
71039;SHT30;58692;43.212;27.908;2023-04-01T01:02:20;7.94;90.69
71039;SHT30;58692;43.212;27.908;2023-04-01T01:04:46;8.07;90.46
71039;SHT30;58692;43.212;27.908;2023-04-01T01:07:30;7.98;90.72
71039;SHT30;58692;43.212;27.908;2023-04-01T01:10:17;7.98;90.53
71039;SHT30;58692;43.212;27.908;2023-04-01T01:15:46;7.94;90.43
71039;SHT30;58692;43.212;27.908;2023-04-01T01:31:50;7.89;90.56
71039;SHT30;58692;43.212;27.908;2023-04-01T01:34:32;7.94;90.55
71039;SHT30;58692;43.212;27.908;2023-04-01T01:37:06;7.93;90.52
71039;SHT30;58692;43.212;27.908;2023-04-01T01:39:34;7.93;90.75
71039;SHT30;58692;43.212;27.908;2023-04-01T01:42:04;7.95;90.89
71039;SHT30;58692;43.212;27.908;2023-04-01T01:44:31;8.00;90.58
71039;SHT30;58692;43.212;27.908;2023-04-01T01:46:59;8.05;90.41
71039;SHT30;58692;43.212;27.908;2023-04-01T01:49:27;8.10;90.33
71039;SHT30;58692;43.212;27.908;2023-04-01T01:51:56;8.11;90.31
71039;SHT30;58692;43.212;27.908;2023-04-01T01:54:21;8.15;90.15
71039;SHT30;58692;43.212;27.908;2023-04-01T01:56:50;8.21;89.94
71039;SHT30;58692;43.212;27.908;2023-04-01T01:59:18;8.21;89.94
71039;SHT30;58692;43.212;27.908;2023-04-01T02:01:49;8.24;89.65
71039;SHT30;58692;43.212;27.908;2023-04-01T02:04:16;8.25;89.69
71039;SHT30;58692;43.212;27.908;2023-04-01T02:06:47;8.25;89.63
71039;SHT30;58692;43.212;27.908;2023-04-01T02:09:15;8.28;89.63
71039;SHT30;58692;43.212;27.908;2023-04-01T02:11:57;8.27;89.31
71039;SHT30;58692;43.212;27.908;2023-04-01T02:14:27;8.30;89.38
71039;SHT30;58692;43.212;27.908;2023-04-01T02:16:58;8.18;89.66
71039;SHT30;58692;43.212;27.908;2023-04-01T02:19:33;8.21;89.65
71039;SHT30;58692;43.212;27.908;2023-04-01T02:22:03;8.27;89.62
71039;SHT30;58692;43.212;27.908;2023-04-01T02:24:31;8.27;89.33
71039;SHT30;58692;43.212;27.908;2023-04-01T02:26:58;8.33;89.36
71039;SHT30;58692;43.212;27.908;2023-04-01T02:29:24;8.34;89.25
71039;SHT30;58692;43.212;27.908;2023-04-01T02:31:52;8.33;89.01
71039;SHT30;58692;43.212;27.908;2023-04-01T02:34:19;8.21;89.28
71039;SHT30;58692;43.212;27.908;2023-04-01T02:36:47;8.28;88.98
71039;SHT30;58692;43.212;27.908;2023-04-01T02:39:13;8.23;89.39
71039;SHT30;58692;43.212;27.908;2023-04-01T02:41:40;8.15;89.44
71039;SHT30;58692;43.212;27.908;2023-04-01T02:44:06;8.18;89.42
71039;SHT30;58692;43.212;27.908;2023-04-01T02:46:32;8.17;89.33
71039;SHT30;58692;43.212;27.908;2023-04-01T02:48:58;8.21;89.08
71039;SHT30;58692;43.212;27.908;2023-04-01T02:51:25;8.21;89.00
71039;SHT30;58692;43.212;27.908;2023-04-01T02:53:50;8.14;89.16
71039;SHT30;58692;43.212;27.908;2023-04-01T02:56:16;8.17;89.36
71039;SHT30;58692;43.212;27.908;2023-04-01T02:58:41;8.17;89.09
71039;SHT30;58692;43.212;27.908;2023-04-01T03:01:07;8.27;88.88
71039;SHT30;58692;43.212;27.908;2023-04-01T03:03:33;8.28;88.85
71039;SHT30;58692;43.212;27.908;2023-04-01T03:06:05;8.30;88.69
71039;SHT30;58692;43.212;27.908;2023-04-01T03:08:30;8.33;88.67
71039;SHT30;58692;43.212;27.908;2023-04-01T03:10:56;8.37;88.70
71039;SHT30;58692;43.212;27.908;2023-04-01T03:13:21;8.37;88.95
71039;SHT30;58692;43.212;27.908;2023-04-01T03:15:47;8.35;88.77
71039;SHT30;58692;43.212;27.908;2023-04-01T03:18:12;8.24;89.23
71039;SHT30;58692;43.212;27.908;2023-04-01T03:20:38;8.34;89.10
71039;SHT30;58692;43.212;27.908;2023-04-01T03:23:03;8.37;88.97
71039;SHT30;58692;43.212;27.908;2023-04-01T03:25:29;8.34;88.93
71039;SHT30;58692;43.212;27.908;2023-04-01T03:27:56;8.34;88.97
71039;SHT30;58692;43.212;27.908;2023-04-01T03:30:21;8.33;88.98
71039;SHT30;58692;43.212;27.908;2023-04-01T03:32:47;8.30;89.05
71039;SHT30;58692;43.212;27.908;2023-04-01T03:35:12;8.34;88.86
71039;SHT30;58692;43.212;27.908;2023-04-01T03:37:38;8.30;88.96
71039;SHT30;58692;43.212;27.908;2023-04-01T03:40:04;8.27;89.13
71039;SHT30;58692;43.212;27.908;2023-04-01T03:42:30;8.30;89.17
71039;SHT30;58692;43.212;27.908;2023-04-01T03:44:57;8.34;88.82
71039;SHT30;58692;43.212;27.908;2023-04-01T03:47:22;8.40;88.88
71039;SHT30;58692;43.212;27.908;2023-04-01T03:49:48;8.38;88.73
71039;SHT30;58692;43.212;27.908;2023-04-01T03:52:14;8.40;88.63
71039;SHT30;58692;43.212;27.908;2023-04-01T03:54:39;8.34;88.65
71039;SHT30;58692;43.212;27.908;2023-04-01T03:57:05;8.30;88.84
71039;SHT30;58692;43.212;27.908;2023-04-01T03:59:31;8.33;88.93
71039;SHT30;58692;43.212;27.908;2023-04-01T04:01:57;8.40;89.13
71039;SHT30;58692;43.212;27.908;2023-04-01T04:04:22;8.45;89.08
71039;SHT30;58692;43.212;27.908;2023-04-01T04:06:48;8.54;88.64
71039;SHT30;58692;43.212;27.908;2023-04-01T04:09:13;8.51;88.88
71039;SHT30;58692;43.212;27.908;2023-04-01T04:11:39;8.54;88.89
71039;SHT30;58692;43.212;27.908;2023-04-01T04:14:04;8.58;88.90
71039;SHT30;58692;43.212;27.908;2023-04-01T04:16:30;8.71;88.85
71039;SHT30;58692;43.212;27.908;2023-04-01T04:18:56;8.83;88.64
71039;SHT30;58692;43.212;27.908;2023-04-01T04:21:21;8.93;88.29
71039;SHT30;58692;43.212;27.908;2023-04-01T04:23:47;8.99;88.17
71039;SHT30;58692;43.212;27.908;2023-04-01T04:26:14;9.09;87.92
71039;SHT30;58692;43.212;27.908;2023-04-01T04:28:40;9.34;87.24
71039;SHT30;58692;43.212;27.908;2023-04-01T04:31:06;9.54;86.60
71039;SHT30;58692;43.212;27.908;2023-04-01T04:33:33;9.88;85.56
71039;SHT30;58692;43.212;27.908;2023-04-01T04:36:00;10.13;84.71
71039;SHT30;58692;43.212;27.908;2023-04-01T04:38:26;10.35;84.11
71039;SHT30;58692;43.212;27.908;2023-04-01T04:40:51;10.28;83.67
71039;SHT30;58692;43.212;27.908;2023-04-01T04:43:18;10.12;84.30
71039;SHT30;58692;43.212;27.908;2023-04-01T04:45:44;10.05;84.29
71039;SHT30;58692;43.212;27.908;2023-04-01T04:48:12;10.13;84.21
71039;SHT30;58692;43.212;27.908;2023-04-01T04:50:41;10.31;83.87
71039;SHT30;58692;43.212;27.908;2023-04-01T04:53:09;10.56;83.28
71039;SHT30;58692;43.212;27.908;2023-04-01T04:55:35;10.76;82.85
71039;SHT30;58692;43.212;27.908;2023-04-01T04:58:01;10.86;82.62
71039;SHT30;58692;43.212;27.908;2023-04-01T05:00:26;11.32;81.55
71039;SHT30;58692;43.212;27.908;2023-04-01T05:02:52;11.14;81.46
71039;SHT30;58692;43.212;27.908;2023-04-01T05:05:18;11.06;81.79
71039;SHT30;58692;43.212;27.908;2023-04-01T05:07:43;10.90;82.27
71039;SHT30;58692;43.212;27.908;2023-04-01T05:10:09;10.89;82.23
71039;SHT30;58692;43.212;27.908;2023-04-01T05:12:35;10.84;82.50
71039;SHT30;58692;43.212;27.908;2023-04-01T05:16:16;10.89;82.52
71039;SHT30;58692;43.212;27.908;2023-04-01T05:18:42;10.87;82.53
71039;SHT30;58692;43.212;27.908;2023-04-01T05:21:09;10.84;82.82
71039;SHT30;58692;43.212;27.908;2023-04-01T05:23:36;10.89;82.92
71039;SHT30;58692;43.212;27.908;2023-04-01T05:26:06;10.92;83.02
71039;SHT30;58692;43.212;27.908;2023-04-01T05:28:32;10.97;82.69
71039;SHT30;58692;43.212;27.908;2023-04-01T05:30:59;11.01;82.57
71039;SHT30;58692;43.212;27.908;2023-04-01T05:33:26;11.06;82.64
71039;SHT30;58692;43.212;27.908;2023-04-01T05:35:52;11.17;82.43
71039;SHT30;58692;43.212;27.908;2023-04-01T05:38:18;11.28;82.41
71039;SHT30;58692;43.212;27.908;2023-04-01T05:40:43;11.47;82.25
71039;SHT30;58692;43.212;27.908;2023-04-01T05:43:09;11.65;81.73
71039;SHT30;58692;43.212;27.908;2023-04-01T05:45:35;11.85;81.20
71039;SHT30;58692;43.212;27.908;2023-04-01T05:48:01;11.58;83.08
71039;SHT30;58692;43.212;27.908;2023-04-01T05:50:26;11.86;82.38
71039;SHT30;58692;43.212;27.908;2023-04-01T05:52:52;12.13;81.70
71039;SHT30;58692;43.212;27.908;2023-04-01T05:55:18;12.60;80.34
71039;SHT30;58692;43.212;27.908;2023-04-01T05:57:45;13.02;79.15
71039;SHT30;58692;43.212;27.908;2023-04-01T06:00:11;13.36;76.85
71039;SHT30;58692;43.212;27.908;2023-04-01T06:02:37;13.90;75.19
71039;SHT30;58692;43.212;27.908;2023-04-01T06:05:14;14.18;74.00
71039;SHT30;58692;43.212;27.908;2023-04-01T06:07:40;14.38;72.93
71039;SHT30;58692;43.212;27.908;2023-04-01T06:10:21;14.26;72.03
71039;SHT30;58692;43.212;27.908;2023-04-01T06:15:54;13.93;72.58
71039;SHT30;58692;43.212;27.908;2023-04-01T06:18:42;13.89;72.95
71039;SHT30;58692;43.212;27.908;2023-04-01T06:24:29;13.38;73.62
71039;SHT30;58692;43.212;27.908;2023-04-01T06:29:35;13.21;75.03
71039;SHT30;58692;43.212;27.908;2023-04-01T06:32:19;13.08;75.02
71039;SHT30;58692;43.212;27.908;2023-04-01T06:37:34;12.91;75.71
71039;SHT30;58692;43.212;27.908;2023-04-01T06:45:54;12.91;75.58
71039;SHT30;58692;43.212;27.908;2023-04-01T06:51:28;12.73;75.31
71039;SHT30;58692;43.212;27.908;2023-04-01T06:56:40;12.93;74.91
71039;SHT30;58692;43.212;27.908;2023-04-01T06:59:14;13.04;74.41
71039;SHT30;58692;43.212;27.908;2023-04-01T07:02:05;13.00;74.82
71039;SHT30;58692;43.212;27.908;2023-04-01T07:04:34;13.00;75.13
71039;SHT30;58692;43.212;27.908;2023-04-01T07:09:34;13.18;74.97
71039;SHT30;58692;43.212;27.908;2023-04-01T07:12:06;13.36;74.56
71039;SHT30;58692;43.212;27.908;2023-04-01T07:14:37;13.48;74.41
71039;SHT30;58692;43.212;27.908;2023-04-01T07:17:08;13.62;74.22
71039;SHT30;58692;43.212;27.908;2023-04-01T07:19:39;13.54;74.53
71039;SHT30;58692;43.212;27.908;2023-04-01T07:25:11;13.48;74.90
71039;SHT30;58692;43.212;27.908;2023-04-01T07:27:38;13.28;75.35
71039;SHT30;58692;43.212;27.908;2023-04-01T07:30:14;13.54;75.16
71039;SHT30;58692;43.212;27.908;2023-04-01T07:35:52;13.21;76.04
71039;SHT30;58692;43.212;27.908;2023-04-01T07:38:26;13.31;75.64
71039;SHT30;58692;43.212;27.908;2023-04-01T07:40:58;13.44;75.10
71039;SHT30;58692;43.212;27.908;2023-04-01T07:43:50;13.54;75.09
71039;SHT30;58692;43.212;27.908;2023-04-01T07:52:01;13.38;75.84
71039;SHT30;58692;43.212;27.908;2023-04-01T07:54:38;13.41;75.72
71039;SHT30;58692;43.212;27.908;2023-04-01T07:59:54;13.42;75.66
71039;SHT30;58692;43.212;27.908;2023-04-01T08:05:36;14.16;73.67
71039;SHT30;58692;43.212;27.908;2023-04-01T08:10:41;15.05;70.69
71039;SHT30;58692;43.212;27.908;2023-04-01T08:16:32;14.27;73.17
71039;SHT30;58692;43.212;27.908;2023-04-01T08:19:15;14.20;74.05
71039;SHT30;58692;43.212;27.908;2023-04-01T08:21:51;14.21;74.28
71039;SHT30;58692;43.212;27.908;2023-04-01T08:24:33;14.38;74.11
71039;SHT30;58692;43.212;27.908;2023-04-01T08:27:06;14.61;73.24
71039;SHT30;58692;43.212;27.908;2023-04-01T08:29:41;14.96;72.16
71039;SHT30;58692;43.212;27.908;2023-04-01T08:32:11;14.85;72.50
71039;SHT30;58692;43.212;27.908;2023-04-01T08:34:40;14.74;72.89
71039;SHT30;58692;43.212;27.908;2023-04-01T08:37:09;14.68;73.25
71039;SHT30;58692;43.212;27.908;2023-04-01T08:39:43;14.65;72.94
71039;SHT30;58692;43.212;27.908;2023-04-01T08:47:37;15.38;71.16
71039;SHT30;58692;43.212;27.908;2023-04-01T08:53:07;15.94;69.56
71039;SHT30;58692;43.212;27.908;2023-04-01T08:55:46;15.84;70.03
71039;SHT30;58692;43.212;27.908;2023-04-01T09:01:25;15.86;69.12
71039;SHT30;58692;43.212;27.908;2023-04-01T09:07:14;15.93;69.55
71039;SHT30;58692;43.212;27.908;2023-04-01T09:09:57;16.11;69.39
71039;SHT30;58692;43.212;27.908;2023-04-01T09:12:52;16.03;69.55
71039;SHT30;58692;43.212;27.908;2023-04-01T09:18:17;15.74;70.29
71039;SHT30;58692;43.212;27.908;2023-04-01T09:23:36;15.97;70.34
71039;SHT30;58692;43.212;27.908;2023-04-01T09:26:12;16.07;69.92
71039;SHT30;58692;43.212;27.908;2023-04-01T09:28:45;16.21;69.54
71039;SHT30;58692;43.212;27.908;2023-04-01T09:31:17;16.35;69.07
71039;SHT30;58692;43.212;27.908;2023-04-01T09:39:36;16.27;69.18
71039;SHT30;58692;43.212;27.908;2023-04-01T09:44:51;16.04;70.61
71039;SHT30;58692;43.212;27.908;2023-04-01T10:01:10;15.87;71.67
71039;SHT30;58692;43.212;27.908;2023-04-01T10:07:01;15.29;73.15
71039;SHT30;58692;43.212;27.908;2023-04-01T10:18:16;14.63;76.08
71039;SHT30;58692;43.212;27.908;2023-04-01T10:29:42;15.21;74.57
71039;SHT30;58692;43.212;27.908;2023-04-01T10:37:54;15.40;74.05
71039;SHT30;58692;43.212;27.908;2023-04-01T10:46:30;15.31;74.32
71039;SHT30;58692;43.212;27.908;2023-04-01T11:00:32;15.76;73.27
71039;SHT30;58692;43.212;27.908;2023-04-01T11:03:33;15.40;74.46
71039;SHT30;58692;43.212;27.908;2023-04-01T11:09:14;15.08;75.44
71039;SHT30;58692;43.212;27.908;2023-04-01T11:25:56;15.79;73.27
71039;SHT30;58692;43.212;27.908;2023-04-01T11:31:37;15.63;73.98
71039;SHT30;58692;43.212;27.908;2023-04-01T11:36:46;15.67;73.92
71039;SHT30;58692;43.212;27.908;2023-04-01T11:39:27;15.60;74.07
71039;SHT30;58692;43.212;27.908;2023-04-01T11:42:03;15.74;73.77
71039;SHT30;58692;43.212;27.908;2023-04-01T11:44:34;15.83;73.39
71039;SHT30;58692;43.212;27.908;2023-04-01T11:49:56;16.59;70.85
71039;SHT30;58692;43.212;27.908;2023-04-01T12:00:30;16.99;69.60
71039;SHT30;58692;43.212;27.908;2023-04-01T12:06:05;17.33;68.62
71039;SHT30;58692;43.212;27.908;2023-04-01T12:08:21;17.49;68.57
71039;SHT30;58692;43.212;27.908;2023-04-01T12:13:35;17.09;69.25
71039;SHT30;58692;43.212;27.908;2023-04-01T12:24:44;16.66;70.80
71039;SHT30;58692;43.212;27.908;2023-04-01T12:27:26;16.75;70.70
71039;SHT30;58692;43.212;27.908;2023-04-01T12:32:34;16.38;72.08
71039;SHT30;58692;43.212;27.908;2023-04-01T12:35:10;16.27;72.53
71039;SHT30;58692;43.212;27.908;2023-04-01T12:45:27;15.77;74.16
71039;SHT30;58692;43.212;27.908;2023-04-01T12:51:11;15.47;75.24
71039;SHT30;58692;43.212;27.908;2023-04-01T13:05:17;14.68;77.89
71039;SHT30;58692;43.212;27.908;2023-04-01T13:08:14;14.84;77.62
71039;SHT30;58692;43.212;27.908;2023-04-01T13:11:06;14.93;77.29
71039;SHT30;58692;43.212;27.908;2023-04-01T13:16:54;15.13;76.77
71039;SHT30;58692;43.212;27.908;2023-04-01T13:27:44;14.88;77.28
71039;SHT30;58692;43.212;27.908;2023-04-01T13:30:25;14.99;77.30
71039;SHT30;58692;43.212;27.908;2023-04-01T13:33:10;15.09;77.27
71039;SHT30;58692;43.212;27.908;2023-04-01T13:44:09;14.92;77.38
71039;SHT30;58692;43.212;27.908;2023-04-01T13:52:47;15.69;75.08
71039;SHT30;58692;43.212;27.908;2023-04-01T14:03:13;15.28;75.31
71039;SHT30;58692;43.212;27.908;2023-04-01T14:05:56;14.95;76.21
71039;SHT30;58692;43.212;27.908;2023-04-01T14:08:48;14.89;76.39
71039;SHT30;58692;43.212;27.908;2023-04-01T14:11:40;15.02;76.26
71039;SHT30;58692;43.212;27.908;2023-04-01T14:14:14;14.92;76.55
71039;SHT30;58692;43.212;27.908;2023-04-01T14:19:46;14.65;77.35
71039;SHT30;58692;43.212;27.908;2023-04-01T14:30:41;14.79;76.64
71039;SHT30;58692;43.212;27.908;2023-04-01T14:33:19;14.64;77.34
71039;SHT30;58692;43.212;27.908;2023-04-01T14:36:04;14.65;77.27
71039;SHT30;58692;43.212;27.908;2023-04-01T14:44:36;14.84;76.73
71039;SHT30;58692;43.212;27.908;2023-04-01T14:49:36;14.87;76.30
71039;SHT30;58692;43.212;27.908;2023-04-01T14:52:09;14.71;76.69
71039;SHT30;58692;43.212;27.908;2023-04-01T14:54:38;14.74;76.77
71039;SHT30;58692;43.212;27.908;2023-04-01T14:57:28;14.63;76.97
71039;SHT30;58692;43.212;27.908;2023-04-01T15:00:12;14.58;77.13
71039;SHT30;58692;43.212;27.908;2023-04-01T15:02:57;14.52;77.27
71039;SHT30;58692;43.212;27.908;2023-04-01T15:16:55;14.58;76.83
71039;SHT30;58692;43.212;27.908;2023-04-01T15:35:51;14.70;76.42
71039;SHT30;58692;43.212;27.908;2023-04-01T15:40:51;14.30;77.44
71039;SHT30;58692;43.212;27.908;2023-04-01T15:49:01;13.59;79.72
71039;SHT30;58692;43.212;27.908;2023-04-01T15:57:44;13.36;81.06
71039;SHT30;58692;43.212;27.908;2023-04-01T16:11:47;13.49;80.58
71039;SHT30;58692;43.212;27.908;2023-04-01T16:14:38;13.51;80.54
71039;SHT30;58692;43.212;27.908;2023-04-01T16:17:57;13.55;80.30
71039;SHT30;58692;43.212;27.908;2023-04-01T16:20:20;13.45;80.58
71039;SHT30;58692;43.212;27.908;2023-04-01T16:23:02;13.42;80.93
71039;SHT30;58692;43.212;27.908;2023-04-01T16:25:49;13.52;80.67
71039;SHT30;58692;43.212;27.908;2023-04-01T16:31:57;13.45;80.83
71039;SHT30;58692;43.212;27.908;2023-04-01T16:36:45;13.46;80.82
71039;SHT30;58692;43.212;27.908;2023-04-01T16:39:37;13.58;80.55
71039;SHT30;58692;43.212;27.908;2023-04-01T16:42:14;13.63;80.38
71039;SHT30;58692;43.212;27.908;2023-04-01T16:45:08;13.55;80.54
71039;SHT30;58692;43.212;27.908;2023-04-01T16:47:47;13.54;80.70
71039;SHT30;58692;43.212;27.908;2023-04-01T16:50:19;13.52;80.76
71039;SHT30;58692;43.212;27.908;2023-04-01T16:53:09;13.44;80.93
71039;SHT30;58692;43.212;27.908;2023-04-01T16:58:23;13.39;81.26
71039;SHT30;58692;43.212;27.908;2023-04-01T17:00:55;13.36;81.39
71039;SHT30;58692;43.212;27.908;2023-04-01T17:03:27;13.38;81.41
71039;SHT30;58692;43.212;27.908;2023-04-01T17:06:07;13.44;81.39
71039;SHT30;58692;43.212;27.908;2023-04-01T17:11:16;13.56;80.80
71039;SHT30;58692;43.212;27.908;2023-04-01T17:13:57;13.49;81.06
71039;SHT30;58692;43.212;27.908;2023-04-01T17:16:32;13.49;81.11
71039;SHT30;58692;43.212;27.908;2023-04-01T17:19:18;13.59;80.94
71039;SHT30;58692;43.212;27.908;2023-04-01T17:21:57;13.59;80.69
71039;SHT30;58692;43.212;27.908;2023-04-01T17:30:13;13.55;80.95
71039;SHT30;58692;43.212;27.908;2023-04-01T17:35:47;13.54;80.96
71039;SHT30;58692;43.212;27.908;2023-04-01T17:38:38;13.42;81.39
71039;SHT30;58692;43.212;27.908;2023-04-01T17:41:29;13.41;81.69
71039;SHT30;58692;43.212;27.908;2023-04-01T17:47:00;13.34;82.36
71039;SHT30;58692;43.212;27.908;2023-04-01T17:49:42;13.38;83.32
71039;SHT30;58692;43.212;27.908;2023-04-01T17:52:24;13.28;83.33
71039;SHT30;58692;43.212;27.908;2023-04-01T17:57:56;13.15;84.15
71039;SHT30;58692;43.212;27.908;2023-04-01T18:00:35;13.22;84.94
71039;SHT30;58692;43.212;27.908;2023-04-01T18:03:39;13.24;85.02
71039;SHT30;58692;43.212;27.908;2023-04-01T18:11:47;13.04;85.48
71039;SHT30;58692;43.212;27.908;2023-04-01T18:19:39;12.87;86.70
71039;SHT30;58692;43.212;27.908;2023-04-01T18:24:58;12.85;86.31
71039;SHT30;58692;43.212;27.908;2023-04-01T18:27:30;12.81;86.37
71039;SHT30;58692;43.212;27.908;2023-04-01T18:35:47;13.04;86.23
71039;SHT30;58692;43.212;27.908;2023-04-01T18:38:19;13.01;85.81
71039;SHT30;58692;43.212;27.908;2023-04-01T18:41:12;13.00;86.65
71039;SHT30;58692;43.212;27.908;2023-04-01T18:46:36;13.12;86.63
71039;SHT30;58692;43.212;27.908;2023-04-01T18:49:11;13.19;86.27
71039;SHT30;58692;43.212;27.908;2023-04-01T18:51:43;13.24;85.94
71039;SHT30;58692;43.212;27.908;2023-04-01T18:56:38;13.22;85.74
71039;SHT30;58692;43.212;27.908;2023-04-01T18:59:08;13.28;86.01
71039;SHT30;58692;43.212;27.908;2023-04-01T19:01:47;13.21;85.59
71039;SHT30;58692;43.212;27.908;2023-04-01T19:06:58;13.11;85.63
71039;SHT30;58692;43.212;27.908;2023-04-01T19:09:45;13.10;85.91
71039;SHT30;58692;43.212;27.908;2023-04-01T19:14:53;13.07;85.81
71039;SHT30;58692;43.212;27.908;2023-04-01T19:17:49;12.97;85.99
71039;SHT30;58692;43.212;27.908;2023-04-01T19:25:48;12.88;87.21
71039;SHT30;58692;43.212;27.908;2023-04-01T19:31:35;12.85;87.44
71039;SHT30;58692;43.212;27.908;2023-04-01T19:34:31;12.87;87.77
71039;SHT30;58692;43.212;27.908;2023-04-01T19:37:08;12.88;87.53
71039;SHT30;58692;43.212;27.908;2023-04-01T19:42:44;12.88;88.18
71039;SHT30;58692;43.212;27.908;2023-04-01T19:53:32;12.84;88.61
71039;SHT30;58692;43.212;27.908;2023-04-01T19:56:18;12.83;88.52
71039;SHT30;58692;43.212;27.908;2023-04-01T19:58:48;12.80;88.02
71039;SHT30;58692;43.212;27.908;2023-04-01T20:01:22;12.83;87.61
71039;SHT30;58692;43.212;27.908;2023-04-01T20:03:55;12.83;87.21
71039;SHT30;58692;43.212;27.908;2023-04-01T20:09:09;12.74;85.98
71039;SHT30;58692;43.212;27.908;2023-04-01T20:11:54;12.83;85.45
71039;SHT30;58692;43.212;27.908;2023-04-01T20:19:43;12.70;85.76
71039;SHT30;58692;43.212;27.908;2023-04-01T20:22:37;12.68;85.91
71039;SHT30;58692;43.212;27.908;2023-04-01T20:36:23;12.71;84.84
71039;SHT30;58692;43.212;27.908;2023-04-01T20:39:19;12.71;84.02
71039;SHT30;58692;43.212;27.908;2023-04-01T20:42:00;12.71;85.14
71039;SHT30;58692;43.212;27.908;2023-04-01T20:50:25;12.39;87.24
71039;SHT30;58692;43.212;27.908;2023-04-01T20:53:07;12.32;87.11
71039;SHT30;58692;43.212;27.908;2023-04-01T20:55:52;12.32;85.71
71039;SHT30;58692;43.212;27.908;2023-04-01T20:58:30;12.46;85.26
71039;SHT30;58692;43.212;27.908;2023-04-01T21:04:16;12.56;83.46
71039;SHT30;58692;43.212;27.908;2023-04-01T21:07:06;12.59;83.14
71039;SHT30;58692;43.212;27.908;2023-04-01T21:23:48;12.46;86.15
71039;SHT30;58692;43.212;27.908;2023-04-01T21:26:46;12.40;86.90
71039;SHT30;58692;43.212;27.908;2023-04-01T21:48:03;12.16;88.76
71039;SHT30;58692;43.212;27.908;2023-04-01T21:50:39;12.22;88.69
71039;SHT30;58692;43.212;27.908;2023-04-01T22:09:39;11.95;89.38
71039;SHT30;58692;43.212;27.908;2023-04-01T22:12:12;11.96;89.41
71039;SHT30;58692;43.212;27.908;2023-04-01T22:14:52;11.96;89.25
71039;SHT30;58692;43.212;27.908;2023-04-01T22:17:38;11.98;89.11
71039;SHT30;58692;43.212;27.908;2023-04-01T22:20:21;11.98;89.26
71039;SHT30;58692;43.212;27.908;2023-04-01T22:25:23;11.92;89.70
71039;SHT30;58692;43.212;27.908;2023-04-01T22:28:00;11.90;89.47
71039;SHT30;58692;43.212;27.908;2023-04-01T22:30:33;11.88;89.63
71039;SHT30;58692;43.212;27.908;2023-04-01T22:33:16;11.90;89.86
71039;SHT30;58692;43.212;27.908;2023-04-01T22:47:22;11.88;89.65
71039;SHT30;58692;43.212;27.908;2023-04-01T22:52:45;11.83;89.71
71039;SHT30;58692;43.212;27.908;2023-04-01T22:57:48;11.86;89.68
71039;SHT30;58692;43.212;27.908;2023-04-01T23:00:24;11.93;89.48
71039;SHT30;58692;43.212;27.908;2023-04-01T23:05:34;11.98;88.54
71039;SHT30;58692;43.212;27.908;2023-04-01T23:08:35;11.93;88.46
71039;SHT30;58692;43.212;27.908;2023-04-01T23:11:08;11.90;88.14
71039;SHT30;58692;43.212;27.908;2023-04-01T23:13:38;11.86;87.13
71039;SHT30;58692;43.212;27.908;2023-04-01T23:16:05;11.90;86.24
71039;SHT30;58692;43.212;27.908;2023-04-01T23:21:26;11.95;84.58
71039;SHT30;58692;43.212;27.908;2023-04-01T23:29:22;11.93;83.50
71039;SHT30;58692;43.212;27.908;2023-04-01T23:31:58;11.93;83.56
71039;SHT30;58692;43.212;27.908;2023-04-01T23:36:56;11.88;82.19
71039;SHT30;58692;43.212;27.908;2023-04-01T23:39:25;11.86;82.06
71039;SHT30;58692;43.212;27.908;2023-04-01T23:41:53;11.79;81.14
71039;SHT30;58692;43.212;27.908;2023-04-01T23:44:20;11.78;80.11
71039;SHT30;58692;43.212;27.908;2023-04-01T23:46:47;11.81;79.51
71039;SHT30;58692;43.212;27.908;2023-04-01T23:49:19;11.77;78.95
71039;SHT30;58692;43.212;27.908;2023-04-01T23:54:41;11.69;77.55
71039;SHT30;58692;43.212;27.908;2023-04-01T23:57:13;11.61;77.90
71039;SHT30;58692;43.212;27.908;2023-04-01T23:59:39;11.59;77.80
